sensor_id;sensor_type;location;lat;lon;timestamp;P1;durP1;ratioP1;P2;durP2;ratioP2
41881;SDS011;27562;47.524;12.404;2022-07-23T13:08:19;4.30;;;3.70;;
41881;SDS011;27562;47.524;12.404;2022-07-23T13:10:45;4.90;;;3.60;;
41881;SDS011;27562;47.524;12.404;2022-07-23T13:13:13;5.55;;;3.70;;
41881;SDS011;27562;47.524;12.404;2022-07-23T13:20:31;5.57;;;3.95;;
41881;SDS011;27562;47.524;12.404;2022-07-23T13:22:58;5.65;;;3.75;;
41881;SDS011;27562;47.524;12.404;2022-07-23T13:25:25;6.57;;;3.95;;
41881;SDS011;27562;47.524;12.404;2022-07-23T13:27:51;8.25;;;3.70;;
41881;SDS011;27562;47.524;12.404;2022-07-23T13:30:17;4.43;;;3.28;;
41881;SDS011;27562;47.524;12.404;2022-07-23T13:32:43;5.15;;;3.63;;
41881;SDS011;27562;47.524;12.404;2022-07-23T13:35:08;4.70;;;3.40;;
41881;SDS011;27562;47.524;12.404;2022-07-23T13:37:34;6.10;;;3.47;;
41881;SDS011;27562;47.524;12.404;2022-07-23T13:40:00;5.73;;;3.60;;
41881;SDS011;27562;47.524;12.404;2022-07-23T13:42:26;8.03;;;3.60;;
41881;SDS011;27562;47.524;12.404;2022-07-23T13:44:52;6.65;;;3.70;;
41881;SDS011;27562;47.524;12.404;2022-07-23T14:01:51;5.05;;;3.92;;
41881;SDS011;27562;47.524;12.404;2022-07-23T14:11:36;4.57;;;3.50;;
41881;SDS011;27562;47.524;12.404;2022-07-23T14:14:03;4.43;;;3.73;;
41881;SDS011;27562;47.524;12.404;2022-07-23T14:16:29;5.90;;;4.15;;
41881;SDS011;27562;47.524;12.404;2022-07-23T14:18:55;5.40;;;4.00;;
41881;SDS011;27562;47.524;12.404;2022-07-23T14:23:46;4.90;;;3.80;;
41881;SDS011;27562;47.524;12.404;2022-07-23T14:48:02;4.20;;;3.80;;
41881;SDS011;27562;47.524;12.404;2022-07-23T14:50:28;5.60;;;4.60;;
41881;SDS011;27562;47.524;12.404;2022-07-23T14:57:45;4.70;;;3.65;;
41881;SDS011;27562;47.524;12.404;2022-07-23T15:00:11;5.30;;;3.70;;
41881;SDS011;27562;47.524;12.404;2022-07-23T15:05:02;4.90;;;3.70;;
41881;SDS011;27562;47.524;12.404;2022-07-23T15:07:29;7.93;;;4.22;;
41881;SDS011;27562;47.524;12.404;2022-07-23T15:09:55;6.50;;;4.00;;
41881;SDS011;27562;47.524;12.404;2022-07-23T15:12:21;7.75;;;4.15;;
41881;SDS011;27562;47.524;12.404;2022-07-23T15:14:47;6.70;;;3.55;;
41881;SDS011;27562;47.524;12.404;2022-07-23T15:17:12;6.38;;;4.32;;
41881;SDS011;27562;47.524;12.404;2022-07-23T15:19:38;4.13;;;3.67;;
41881;SDS011;27562;47.524;12.404;2022-07-23T15:22:04;5.33;;;3.90;;
41881;SDS011;27562;47.524;12.404;2022-07-23T15:26:55;4.25;;;3.35;;
41881;SDS011;27562;47.524;12.404;2022-07-23T15:29:21;5.70;;;3.90;;
41881;SDS011;27562;47.524;12.404;2022-07-23T15:31:47;5.88;;;3.63;;
41881;SDS011;27562;47.524;12.404;2022-07-23T15:34:13;6.20;;;3.60;;
41881;SDS011;27562;47.524;12.404;2022-07-23T15:36:38;5.15;;;3.50;;
41881;SDS011;27562;47.524;12.404;2022-07-23T15:39:04;4.53;;;3.60;;
41881;SDS011;27562;47.524;12.404;2022-07-23T15:41:30;5.55;;;3.75;;
41881;SDS011;27562;47.524;12.404;2022-07-23T15:43:56;5.60;;;4.20;;
41881;SDS011;27562;47.524;12.404;2022-07-23T16:30:06;5.70;;;4.45;;
41881;SDS011;27562;47.524;12.404;2022-07-23T16:32:33;6.90;;;5.25;;
41881;SDS011;27562;47.524;12.404;2022-07-23T16:37:25;5.45;;;4.50;;
41881;SDS011;27562;47.524;12.404;2022-07-23T17:33:17;8.00;;;4.90;;
41881;SDS011;27562;47.524;12.404;2022-07-23T17:35:42;7.17;;;5.63;;
41881;SDS011;27562;47.524;12.404;2022-07-23T17:38:08;6.82;;;5.25;;
41881;SDS011;27562;47.524;12.404;2022-07-23T17:40:34;5.85;;;5.13;;
41881;SDS011;27562;47.524;12.404;2022-07-23T17:42:59;6.07;;;5.07;;
41881;SDS011;27562;47.524;12.404;2022-07-23T17:45:25;7.72;;;5.38;;
41881;SDS011;27562;47.524;12.404;2022-07-23T17:47:51;6.88;;;5.65;;
41881;SDS011;27562;47.524;12.404;2022-07-23T17:50:17;7.85;;;5.35;;
41881;SDS011;27562;47.524;12.404;2022-07-23T17:52:47;7.03;;;4.93;;
41881;SDS011;27562;47.524;12.404;2022-07-23T17:55:14;6.82;;;4.82;;
41881;SDS011;27562;47.524;12.404;2022-07-23T17:57:40;6.35;;;4.95;;
41881;SDS011;27562;47.524;12.404;2022-07-23T18:00:07;6.63;;;4.82;;
41881;SDS011;27562;47.524;12.404;2022-07-23T18:02:34;6.72;;;5.05;;
41881;SDS011;27562;47.524;12.404;2022-07-23T18:05:00;7.00;;;5.40;;
41881;SDS011;27562;47.524;12.404;2022-07-23T18:07:27;5.97;;;4.53;;
41881;SDS011;27562;47.524;12.404;2022-07-23T18:09:53;6.18;;;4.70;;
41881;SDS011;27562;47.524;12.404;2022-07-23T18:12:18;5.47;;;4.88;;
41881;SDS011;27562;47.524;12.404;2022-07-23T18:14:44;5.35;;;4.72;;
41881;SDS011;27562;47.524;12.404;2022-07-23T18:17:10;8.43;;;5.35;;
41881;SDS011;27562;47.524;12.404;2022-07-23T18:19:35;9.82;;;5.75;;
41881;SDS011;27562;47.524;12.404;2022-07-23T18:22:01;6.93;;;5.10;;
41881;SDS011;27562;47.524;12.404;2022-07-23T18:24:27;6.82;;;4.68;;
41881;SDS011;27562;47.524;12.404;2022-07-23T18:26:52;6.57;;;5.18;;
41881;SDS011;27562;47.524;12.404;2022-07-23T18:29:18;6.85;;;5.03;;
41881;SDS011;27562;47.524;12.404;2022-07-23T18:31:44;6.90;;;5.57;;
41881;SDS011;27562;47.524;12.404;2022-07-23T18:34:12;7.20;;;5.10;;
41881;SDS011;27562;47.524;12.404;2022-07-23T18:36:38;8.45;;;6.13;;
41881;SDS011;27562;47.524;12.404;2022-07-23T18:39:03;8.98;;;6.05;;
41881;SDS011;27562;47.524;12.404;2022-07-23T18:41:30;7.70;;;5.90;;
41881;SDS011;27562;47.524;12.404;2022-07-23T18:43:59;7.30;;;5.43;;
41881;SDS011;27562;47.524;12.404;2022-07-23T18:46:26;7.68;;;6.20;;
41881;SDS011;27562;47.524;12.404;2022-07-23T18:48:51;7.18;;;5.78;;
41881;SDS011;27562;47.524;12.404;2022-07-23T18:51:17;6.60;;;5.72;;
41881;SDS011;27562;47.524;12.404;2022-07-23T18:53:43;7.32;;;5.55;;
41881;SDS011;27562;47.524;12.404;2022-07-23T18:56:08;6.50;;;5.10;;
41881;SDS011;27562;47.524;12.404;2022-07-23T18:58:34;7.97;;;5.65;;
41881;SDS011;27562;47.524;12.404;2022-07-23T19:01:00;6.85;;;5.88;;
41881;SDS011;27562;47.524;12.404;2022-07-23T19:03:26;6.88;;;5.35;;
41881;SDS011;27562;47.524;12.404;2022-07-23T19:05:51;5.75;;;5.10;;
41881;SDS011;27562;47.524;12.404;2022-07-23T19:08:17;9.57;;;5.55;;
41881;SDS011;27562;47.524;12.404;2022-07-23T19:10:43;6.43;;;5.20;;
41881;SDS011;27562;47.524;12.404;2022-07-23T19:13:09;7.63;;;5.68;;
41881;SDS011;27562;47.524;12.404;2022-07-23T19:15:35;6.70;;;5.35;;
41881;SDS011;27562;47.524;12.404;2022-07-23T19:18:01;5.80;;;5.10;;
41881;SDS011;27562;47.524;12.404;2022-07-23T19:20:26;6.85;;;5.65;;
41881;SDS011;27562;47.524;12.404;2022-07-23T19:22:52;5.90;;;5.30;;
41881;SDS011;27562;47.524;12.404;2022-07-23T19:25:18;5.97;;;5.15;;
41881;SDS011;27562;47.524;12.404;2022-07-23T19:27:43;7.05;;;5.40;;
41881;SDS011;27562;47.524;12.404;2022-07-23T19:30:09;6.95;;;5.30;;
41881;SDS011;27562;47.524;12.404;2022-07-23T19:32:35;7.55;;;5.18;;
41881;SDS011;27562;47.524;12.404;2022-07-23T19:35:01;6.38;;;4.95;;
41881;SDS011;27562;47.524;12.404;2022-07-23T19:37:28;6.60;;;5.13;;
41881;SDS011;27562;47.524;12.404;2022-07-23T19:39:54;7.65;;;5.90;;
41881;SDS011;27562;47.524;12.404;2022-07-23T19:42:20;7.22;;;5.63;;
41881;SDS011;27562;47.524;12.404;2022-07-23T19:44:45;7.22;;;5.53;;
41881;SDS011;27562;47.524;12.404;2022-07-23T19:47:11;6.53;;;5.60;;
41881;SDS011;27562;47.524;12.404;2022-07-23T19:49:36;5.90;;;5.30;;
41881;SDS011;27562;47.524;12.404;2022-07-23T19:52:02;6.88;;;5.53;;
41881;SDS011;27562;47.524;12.404;2022-07-23T19:54:28;7.80;;;5.75;;
41881;SDS011;27562;47.524;12.404;2022-07-23T19:56:54;6.20;;;5.22;;
41881;SDS011;27562;47.524;12.404;2022-07-23T19:59:20;7.07;;;5.70;;
41881;SDS011;27562;47.524;12.404;2022-07-23T20:01:46;7.10;;;5.18;;
41881;SDS011;27562;47.524;12.404;2022-07-23T20:04:12;7.47;;;5.68;;
41881;SDS011;27562;47.524;12.404;2022-07-23T20:06:37;6.97;;;5.82;;
41881;SDS011;27562;47.524;12.404;2022-07-23T20:09:04;6.88;;;5.22;;
41881;SDS011;27562;47.524;12.404;2022-07-23T20:11:30;6.90;;;5.63;;
41881;SDS011;27562;47.524;12.404;2022-07-23T20:13:57;6.70;;;6.00;;
41881;SDS011;27562;47.524;12.404;2022-07-23T20:16:23;6.85;;;5.38;;
41881;SDS011;27562;47.524;12.404;2022-07-23T20:18:49;7.63;;;5.57;;
41881;SDS011;27562;47.524;12.404;2022-07-23T20:21:15;6.80;;;5.70;;
41881;SDS011;27562;47.524;12.404;2022-07-23T20:23:40;8.23;;;6.00;;
41881;SDS011;27562;47.524;12.404;2022-07-23T20:26:06;8.57;;;5.55;;
41881;SDS011;27562;47.524;12.404;2022-07-23T20:28:32;9.13;;;5.63;;
41881;SDS011;27562;47.524;12.404;2022-07-23T20:30:57;7.55;;;5.97;;
41881;SDS011;27562;47.524;12.404;2022-07-23T20:33:28;11.18;;;5.93;;
41881;SDS011;27562;47.524;12.404;2022-07-23T20:35:55;7.97;;;5.70;;
41881;SDS011;27562;47.524;12.404;2022-07-23T20:38:20;7.72;;;6.20;;
41881;SDS011;27562;47.524;12.404;2022-07-23T20:40:46;6.65;;;5.25;;
41881;SDS011;27562;47.524;12.404;2022-07-23T20:43:12;8.77;;;5.60;;
41881;SDS011;27562;47.524;12.404;2022-07-23T20:45:38;7.63;;;5.20;;
41881;SDS011;27562;47.524;12.404;2022-07-23T20:48:04;7.60;;;5.57;;
41881;SDS011;27562;47.524;12.404;2022-07-23T20:50:29;7.07;;;5.38;;
41881;SDS011;27562;47.524;12.404;2022-07-23T20:52:55;6.20;;;5.40;;
41881;SDS011;27562;47.524;12.404;2022-07-23T20:55:21;6.93;;;5.18;;
41881;SDS011;27562;47.524;12.404;2022-07-23T20:57:46;7.05;;;5.38;;
41881;SDS011;27562;47.524;12.404;2022-07-23T21:00:14;6.05;;;5.13;;
41881;SDS011;27562;47.524;12.404;2022-07-23T21:02:40;6.93;;;5.63;;
41881;SDS011;27562;47.524;12.404;2022-07-23T21:05:06;6.45;;;5.50;;
41881;SDS011;27562;47.524;12.404;2022-07-23T21:07:33;8.75;;;6.13;;
41881;SDS011;27562;47.524;12.404;2022-07-23T21:09:58;8.05;;;5.50;;
41881;SDS011;27562;47.524;12.404;2022-07-23T21:12:24;8.07;;;5.75;;
41881;SDS011;27562;47.524;12.404;2022-07-23T21:14:50;7.03;;;5.63;;
41881;SDS011;27562;47.524;12.404;2022-07-23T21:17:17;7.20;;;5.30;;
41881;SDS011;27562;47.524;12.404;2022-07-23T21:19:43;7.00;;;5.47;;
41881;SDS011;27562;47.524;12.404;2022-07-23T21:22:09;7.57;;;5.78;;
41881;SDS011;27562;47.524;12.404;2022-07-23T21:24:35;6.65;;;5.28;;
41881;SDS011;27562;47.524;12.404;2022-07-23T21:27:01;6.60;;;5.63;;
41881;SDS011;27562;47.524;12.404;2022-07-23T21:29:27;6.88;;;5.45;;
41881;SDS011;27562;47.524;12.404;2022-07-23T21:31:53;7.72;;;5.70;;
41881;SDS011;27562;47.524;12.404;2022-07-23T21:34:21;6.82;;;5.97;;
41881;SDS011;27562;47.524;12.404;2022-07-23T21:36:48;8.45;;;6.25;;
41881;SDS011;27562;47.524;12.404;2022-07-23T21:39:13;7.25;;;6.20;;
41881;SDS011;27562;47.524;12.404;2022-07-23T21:41:40;9.05;;;6.07;;
41881;SDS011;27562;47.524;12.404;2022-07-23T21:44:06;6.43;;;5.72;;
41881;SDS011;27562;47.524;12.404;2022-07-23T21:46:32;6.90;;;5.50;;
41881;SDS011;27562;47.524;12.404;2022-07-23T21:48:59;6.43;;;5.72;;
41881;SDS011;27562;47.524;12.404;2022-07-23T21:51:26;8.93;;;5.85;;
41881;SDS011;27562;47.524;12.404;2022-07-23T21:53:52;7.72;;;6.13;;
41881;SDS011;27562;47.524;12.404;2022-07-23T21:56:19;6.88;;;5.32;;
41881;SDS011;27562;47.524;12.404;2022-07-23T21:58:44;6.93;;;5.03;;
41881;SDS011;27562;47.524;12.404;2022-07-23T22:01:10;6.97;;;5.25;;
41881;SDS011;27562;47.524;12.404;2022-07-23T22:03:37;8.05;;;5.47;;
41881;SDS011;27562;47.524;12.404;2022-07-23T22:06:02;8.25;;;5.85;;
41881;SDS011;27562;47.524;12.404;2022-07-23T22:08:28;8.05;;;5.57;;
41881;SDS011;27562;47.524;12.404;2022-07-23T22:10:54;5.95;;;5.35;;
41881;SDS011;27562;47.524;12.404;2022-07-23T22:13:20;7.88;;;5.50;;
41881;SDS011;27562;47.524;12.404;2022-07-23T22:15:46;6.82;;;5.38;;
41881;SDS011;27562;47.524;12.404;2022-07-23T22:18:12;5.60;;;5.00;;
41881;SDS011;27562;47.524;12.404;2022-07-23T22:20:37;7.15;;;5.45;;
41881;SDS011;27562;47.524;12.404;2022-07-23T22:23:03;7.65;;;5.88;;
41881;SDS011;27562;47.524;12.404;2022-07-23T22:25:30;6.97;;;5.80;;
41881;SDS011;27562;47.524;12.404;2022-07-23T22:27:56;6.40;;;5.25;;
41881;SDS011;27562;47.524;12.404;2022-07-23T22:30:22;7.80;;;6.07;;
41881;SDS011;27562;47.524;12.404;2022-07-23T22:32:48;7.47;;;5.80;;
41881;SDS011;27562;47.524;12.404;2022-07-23T22:35:13;6.93;;;5.60;;
41881;SDS011;27562;47.524;12.404;2022-07-23T22:37:40;7.72;;;5.93;;
41881;SDS011;27562;47.524;12.404;2022-07-23T22:40:06;8.63;;;5.90;;
41881;SDS011;27562;47.524;12.404;2022-07-23T22:42:32;7.72;;;5.60;;
41881;SDS011;27562;47.524;12.404;2022-07-23T22:44:57;6.35;;;5.18;;
41881;SDS011;27562;47.524;12.404;2022-07-23T22:47:23;7.75;;;5.93;;
41881;SDS011;27562;47.524;12.404;2022-07-23T22:49:49;7.80;;;5.55;;
41881;SDS011;27562;47.524;12.404;2022-07-23T22:52:14;6.60;;;5.53;;
41881;SDS011;27562;47.524;12.404;2022-07-23T22:54:40;7.30;;;5.60;;
41881;SDS011;27562;47.524;12.404;2022-07-23T22:57:06;7.05;;;5.97;;
41881;SDS011;27562;47.524;12.404;2022-07-23T22:59:31;6.65;;;5.28;;
41881;SDS011;27562;47.524;12.404;2022-07-23T23:01:57;7.15;;;5.55;;
41881;SDS011;27562;47.524;12.404;2022-07-23T23:04:24;6.85;;;5.30;;
41881;SDS011;27562;47.524;12.404;2022-07-23T23:06:52;6.15;;;5.55;;
41881;SDS011;27562;47.524;12.404;2022-07-23T23:09:18;6.57;;;5.63;;
41881;SDS011;27562;47.524;12.404;2022-07-23T23:11:44;6.80;;;5.60;;
41881;SDS011;27562;47.524;12.404;2022-07-23T23:14:10;6.82;;;5.25;;
41881;SDS011;27562;47.524;12.404;2022-07-23T23:16:35;7.75;;;5.68;;
41881;SDS011;27562;47.524;12.404;2022-07-23T23:19:01;6.90;;;5.65;;
41881;SDS011;27562;47.524;12.404;2022-07-23T23:21:27;9.27;;;5.88;;
41881;SDS011;27562;47.524;12.404;2022-07-23T23:23:52;9.75;;;6.00;;
41881;SDS011;27562;47.524;12.404;2022-07-23T23:26:18;6.70;;;5.40;;
41881;SDS011;27562;47.524;12.404;2022-07-23T23:28:44;7.03;;;5.93;;
41881;SDS011;27562;47.524;12.404;2022-07-23T23:31:09;7.93;;;5.80;;
41881;SDS011;27562;47.524;12.404;2022-07-23T23:33:35;9.55;;;5.50;;
41881;SDS011;27562;47.524;12.404;2022-07-23T23:36:01;8.93;;;6.00;;
41881;SDS011;27562;47.524;12.404;2022-07-23T23:38:27;9.80;;;5.88;;
41881;SDS011;27562;47.524;12.404;2022-07-23T23:40:52;7.95;;;5.72;;
41881;SDS011;27562;47.524;12.404;2022-07-23T23:43:18;7.78;;;5.43;;
41881;SDS011;27562;47.524;12.404;2022-07-23T23:45:44;6.95;;;5.68;;
41881;SDS011;27562;47.524;12.404;2022-07-23T23:48:09;7.35;;;6.10;;
41881;SDS011;27562;47.524;12.404;2022-07-23T23:50:35;6.57;;;5.43;;
41881;SDS011;27562;47.524;12.404;2022-07-23T23:53:01;6.97;;;5.65;;
41881;SDS011;27562;47.524;12.404;2022-07-23T23:55:26;10.30;;;6.03;;
41881;SDS011;27562;47.524;12.404;2022-07-23T23:57:52;7.35;;;5.50;;
